Macomb, MI (48042)

2:34 AM EST on December 22, 2014 (GMT -0500)
Valley Forge Subdivision | Change Station
CLOSE
Current Station
Personal Weather Station
Location: Macomb, MI
Elevation: 607 ft
Nearby Weather Stations

Elev 607 ft 42.65 °N, 82.95 °W | Updated 12 seconds ago

Overcast
Overcast
29.7 °F
Feels Like 30 °F
N
2.0
Wind Variable Wind from ESE
Gusts 2.0 mph

Today
High -- | Low -- °F
--% Chance of Precip.
Yesterday
High -- | Low -- °F
Precip. -- in
7:59 AM 5:01 PM
New Moon, 0% visible
Pressure 30.18 in
Visibility 10.0 miles
Clouds Overcast 2200 ft
Windchill 30 °F
Dew Point 26 °F
Humidity 86%
Rainfall 0.00 in
Snow Depth Not available.
UV 0 out of 12
Pollen .10 out of 12
Air Quality Not available.
Flu Activity Not available.
METAR KMTC 220658Z AUTO 14008KT 10SM OVC022 M01/M03 A3015 RMK AO2 SLP220 T10061033 $

More Conditions Fewer Conditions

Pressure 30.18 in
Visibility 10.0 miles
Clouds Overcast 2200 ft
Windchill 30 °F
Dew Point 26 °F
Humidity 86%
Rainfall 0.00 in
Snow Depth Not available.
UV 0 out of 12
Pollen .10 out of 12
Air Quality Not available.
Flu Activity Not available.
METAR KMTC 220658Z AUTO 14008KT 10SM OVC022 M01/M03 A3015 RMK AO2 SLP220 T10061033 $

More Conditions Fewer Conditions

10-Day Weather Forecast

Almanac

Astronomy

Dec. 22, 2014 Rise Set
Actual Time
Civil Twilight
Nautical Twilight
Astronomical Twilight
Moon
Length of Visible Light
Length of Day
Tomorrow will be .
, % of the Moon is Illuminated

Today's Extremes

State Highs State Lows

Community

WunderPhotos

Upload Photos

1,779,564 photos uploaded!

WunderBlogs® & News

Nearby

Air Quality

  Air Quality AQ Index Pollutant
Not available.

Snow Depth

Station Depth Elevation

Earthquake Activity

City Distance Mag. Time & Date
Minimum magnitude displayed is 2.5.

Coastal Water Temperatures

Place Temperature

Nearby Weather Stations